This is the latest recevied weather packets stored in our database for station/object DM4SB-4. If no packets are shown the sender has not sent any weather packets the latest 1 day(s).
| Time | Temp. | Humidity | Pressure | Rain* | Wind** | Luminosity | Snow |
|---|---|---|---|---|---|---|---|
| 1777988433 | 13.33° C | 91% | 1005.3 hPa | 1.27 mm | 0 m/s | - | - |
| 1777987834 | 13.33° C | 91% | 1005.1 hPa | 1.27 mm | 0 m/s | - | - |
| 1777987234 | 13.33° C | 88% | 1005.4 hPa | 1.27 mm | 0 m/s | - | - |
| 1777986633 | 15° C | 83% | 1005.1 hPa | 0.76 mm | 0 m/s | - | - |
| 1777986033 | 16.67° C | 72% | 1004.8 hPa | 0 mm | 0 m/s | - | - |
| 1777985433 | 19.44° C | 62% | 1004.5 hPa | 0 mm | 0 m/s | - | - |
| 1777984833 | 18.89° C | 62% | 1004.5 hPa | 0 mm | 0 m/s | - | - |
| 1777984234 | 18.89° C | 60% | 1004.6 hPa | 0 mm | 0 m/s | - | - |
| 1777983634 | 18.89° C | 62% | 1004.4 hPa | 0 mm | 0 m/s | - | - |
| 1777983033 | 19.44° C | 62% | 1004.7 hPa | 0 mm | 0 m/s | - | - |
| 1777982433 | 19.44° C | 58% | 1004.5 hPa | 0 mm | 0 m/s | - | - |
| 1777981833 | 20° C | 55% | 1004.5 hPa | 0 mm | 0 m/s | - | - |
| 1777981233 | 20° C | 55% | 1004.4 hPa | 0 mm | 0 m/s | - | - |
| 1777980633 | 20° C | 55% | 1004.4 hPa | 0 mm | 0 m/s | - | - |
| 1777980034 | 20.56° C | 55% | 1004.3 hPa | 0 mm | 0 m/s | - | - |
| 1777979434 | 20.56° C | 54% | 1004.5 hPa | 0 mm | 0 m/s | - | - |
| 1777978834 | 21.11° C | 51% | 1004.6 hPa | 0 mm | 0 m/s | - | - |
| 1777978233 | 20.56° C | 56% | 1004.6 hPa | 0 mm | 0 m/s | - | - |
| 1777977633 | 20.56° C | 56% | 1004.7 hPa | 0 mm | 0 m/s | - | - |
| 1777977033 | 20.56° C | 55% | 1004.7 hPa | 0 mm | 0 m/s | - | - |
| 1777976433 | 22.22° C | 49% | 1005 hPa | 0 mm | 0 m/s | - | - |
| 1777975834 | 22.78° C | 49% | 1004.9 hPa | 0 mm | 0 m/s | - | - |
| 1777975234 | 22.78° C | 48% | 1005.1 hPa | 0 mm | 0 m/s | - | - |
| 1777974633 | 21.11° C | 49% | 1005.4 hPa | 0 mm | 0 m/s | - | - |
| 1777974033 | 21.67° C | 50% | 1005.3 hPa | 0 mm | 0.45 m/s, 129° | - | - |
* Rain latest hour (hover to see other rain measurements)
** Current wind speed in m/s (hover to see current wind gust speed)